sensor_id;sensor_type;location;lat;lon;timestamp;P1;durP1;ratioP1;P2;durP2;ratioP2
67726;SDS011;54525;55.680;37.540;2022-08-19T00:01:59;6.15;;;3.35;;
67726;SDS011;54525;55.680;37.540;2022-08-19T00:04:40;7.30;;;3.35;;
67726;SDS011;54525;55.680;37.540;2022-08-19T00:07:05;14.77;;;3.22;;
67726;SDS011;54525;55.680;37.540;2022-08-19T00:09:32;11.07;;;3.50;;
67726;SDS011;54525;55.680;37.540;2022-08-19T00:11:58;4.97;;;3.13;;
67726;SDS011;54525;55.680;37.540;2022-08-19T00:14:24;11.77;;;3.47;;
67726;SDS011;54525;55.680;37.540;2022-08-19T00:16:52;8.93;;;3.83;;
67726;SDS011;54525;55.680;37.540;2022-08-19T00:19:19;6.35;;;3.10;;
67726;SDS011;54525;55.680;37.540;2022-08-19T00:21:46;6.65;;;3.42;;
67726;SDS011;54525;55.680;37.540;2022-08-19T00:24:12;9.25;;;4.00;;
67726;SDS011;54525;55.680;37.540;2022-08-19T00:26:39;7.00;;;3.20;;
67726;SDS011;54525;55.680;37.540;2022-08-19T00:29:07;7.60;;;2.95;;
67726;SDS011;54525;55.680;37.540;2022-08-19T00:31:34;6.20;;;3.65;;
67726;SDS011;54525;55.680;37.540;2022-08-19T00:34:00;6.57;;;3.42;;
67726;SDS011;54525;55.680;37.540;2022-08-19T00:36:26;9.57;;;3.85;;
67726;SDS011;54525;55.680;37.540;2022-08-19T00:38:53;10.52;;;3.70;;
67726;SDS011;54525;55.680;37.540;2022-08-19T00:41:19;10.57;;;3.17;;
67726;SDS011;54525;55.680;37.540;2022-08-19T00:44:08;5.93;;;3.50;;
67726;SDS011;54525;55.680;37.540;2022-08-19T00:46:36;4.88;;;3.22;;
67726;SDS011;54525;55.680;37.540;2022-08-19T00:49:06;11.75;;;3.65;;
67726;SDS011;54525;55.680;37.540;2022-08-19T00:51:41;8.90;;;3.78;;
67726;SDS011;54525;55.680;37.540;2022-08-19T00:54:09;6.95;;;3.10;;
67726;SDS011;54525;55.680;37.540;2022-08-19T00:56:36;9.98;;;3.90;;
67726;SDS011;54525;55.680;37.540;2022-08-19T00:59:02;15.93;;;3.88;;
67726;SDS011;54525;55.680;37.540;2022-08-19T01:01:34;11.52;;;3.83;;
67726;SDS011;54525;55.680;37.540;2022-08-19T01:04:04;15.57;;;4.10;;
67726;SDS011;54525;55.680;37.540;2022-08-19T01:06:30;10.65;;;4.25;;
67726;SDS011;54525;55.680;37.540;2022-08-19T01:08:57;6.65;;;3.22;;
67726;SDS011;54525;55.680;37.540;2022-08-19T01:11:24;14.70;;;3.85;;
67726;SDS011;54525;55.680;37.540;2022-08-19T01:13:51;9.02;;;3.25;;
67726;SDS011;54525;55.680;37.540;2022-08-19T01:16:19;11.93;;;4.07;;
67726;SDS011;54525;55.680;37.540;2022-08-19T01:18:47;7.30;;;3.47;;
67726;SDS011;54525;55.680;37.540;2022-08-19T01:21:18;6.63;;;3.42;;
67726;SDS011;54525;55.680;37.540;2022-08-19T01:23:49;7.80;;;3.78;;
67726;SDS011;54525;55.680;37.540;2022-08-19T01:26:17;11.93;;;3.90;;
67726;SDS011;54525;55.680;37.540;2022-08-19T01:28:45;8.88;;;3.45;;
67726;SDS011;54525;55.680;37.540;2022-08-19T01:31:14;9.60;;;3.35;;
67726;SDS011;54525;55.680;37.540;2022-08-19T01:33:42;7.97;;;3.70;;
67726;SDS011;54525;55.680;37.540;2022-08-19T01:36:13;8.77;;;3.42;;
67726;SDS011;54525;55.680;37.540;2022-08-19T01:38:42;5.78;;;3.22;;
67726;SDS011;54525;55.680;37.540;2022-08-19T01:41:09;5.40;;;2.97;;
67726;SDS011;54525;55.680;37.540;2022-08-19T01:43:36;8.10;;;3.75;;
67726;SDS011;54525;55.680;37.540;2022-08-19T01:46:02;13.23;;;3.75;;
67726;SDS011;54525;55.680;37.540;2022-08-19T01:48:32;8.07;;;3.30;;
67726;SDS011;54525;55.680;37.540;2022-08-19T01:51:01;8.82;;;3.30;;
67726;SDS011;54525;55.680;37.540;2022-08-19T01:53:27;12.07;;;4.05;;
67726;SDS011;54525;55.680;37.540;2022-08-19T01:55:52;7.00;;;3.05;;
67726;SDS011;54525;55.680;37.540;2022-08-19T01:58:19;8.30;;;3.60;;
67726;SDS011;54525;55.680;37.540;2022-08-19T02:00:47;8.15;;;3.75;;
67726;SDS011;54525;55.680;37.540;2022-08-19T02:03:13;13.30;;;3.17;;
67726;SDS011;54525;55.680;37.540;2022-08-19T02:05:39;7.15;;;3.35;;
67726;SDS011;54525;55.680;37.540;2022-08-19T02:08:06;12.60;;;3.85;;
67726;SDS011;54525;55.680;37.540;2022-08-19T02:10:32;7.03;;;3.67;;
67726;SDS011;54525;55.680;37.540;2022-08-19T02:12:58;11.35;;;3.53;;
67726;SDS011;54525;55.680;37.540;2022-08-19T02:15:23;8.50;;;3.30;;
67726;SDS011;54525;55.680;37.540;2022-08-19T02:17:50;5.53;;;2.90;;
67726;SDS011;54525;55.680;37.540;2022-08-19T02:20:16;4.95;;;3.20;;
67726;SDS011;54525;55.680;37.540;2022-08-19T02:22:42;13.45;;;3.80;;
67726;SDS011;54525;55.680;37.540;2022-08-19T02:25:09;5.35;;;3.35;;
67726;SDS011;54525;55.680;37.540;2022-08-19T02:27:36;6.65;;;3.85;;
67726;SDS011;54525;55.680;37.540;2022-08-19T02:30:03;7.07;;;3.00;;
67726;SDS011;54525;55.680;37.540;2022-08-19T02:32:35;5.57;;;3.40;;
67726;SDS011;54525;55.680;37.540;2022-08-19T02:35:01;7.43;;;3.78;;
67726;SDS011;54525;55.680;37.540;2022-08-19T02:37:26;7.68;;;3.38;;
67726;SDS011;54525;55.680;37.540;2022-08-19T02:40:11;5.88;;;3.20;;
67726;SDS011;54525;55.680;37.540;2022-08-19T02:42:36;8.65;;;3.63;;
67726;SDS011;54525;55.680;37.540;2022-08-19T02:45:02;9.00;;;3.88;;
67726;SDS011;54525;55.680;37.540;2022-08-19T02:47:28;8.95;;;4.07;;
67726;SDS011;54525;55.680;37.540;2022-08-19T02:49:54;9.05;;;3.90;;
67726;SDS011;54525;55.680;37.540;2022-08-19T02:52:19;8.35;;;3.50;;
67726;SDS011;54525;55.680;37.540;2022-08-19T02:54:45;6.47;;;3.83;;
67726;SDS011;54525;55.680;37.540;2022-08-19T02:57:10;10.65;;;3.83;;
67726;SDS011;54525;55.680;37.540;2022-08-19T02:59:36;11.15;;;3.60;;
67726;SDS011;54525;55.680;37.540;2022-08-19T03:02:01;10.43;;;3.78;;
67726;SDS011;54525;55.680;37.540;2022-08-19T03:04:27;13.32;;;4.43;;
67726;SDS011;54525;55.680;37.540;2022-08-19T03:06:54;7.60;;;3.90;;
67726;SDS011;54525;55.680;37.540;2022-08-19T03:09:20;12.15;;;3.75;;
67726;SDS011;54525;55.680;37.540;2022-08-19T03:11:45;6.82;;;3.85;;
67726;SDS011;54525;55.680;37.540;2022-08-19T03:14:11;11.55;;;4.47;;
67726;SDS011;54525;55.680;37.540;2022-08-19T03:16:46;13.63;;;3.83;;
67726;SDS011;54525;55.680;37.540;2022-08-19T03:19:15;7.85;;;3.78;;
67726;SDS011;54525;55.680;37.540;2022-08-19T03:21:42;9.32;;;3.92;;
67726;SDS011;54525;55.680;37.540;2022-08-19T03:24:09;9.07;;;3.83;;
67726;SDS011;54525;55.680;37.540;2022-08-19T03:26:38;9.13;;;4.22;;
67726;SDS011;54525;55.680;37.540;2022-08-19T03:29:05;6.20;;;3.53;;
67726;SDS011;54525;55.680;37.540;2022-08-19T03:31:31;10.02;;;4.38;;
67726;SDS011;54525;55.680;37.540;2022-08-19T03:33:57;14.25;;;4.25;;
67726;SDS011;54525;55.680;37.540;2022-08-19T03:36:24;8.35;;;3.85;;
67726;SDS011;54525;55.680;37.540;2022-08-19T03:38:52;11.50;;;4.57;;
67726;SDS011;54525;55.680;37.540;2022-08-19T03:41:23;12.15;;;4.28;;
67726;SDS011;54525;55.680;37.540;2022-08-19T03:43:51;18.45;;;4.78;;
67726;SDS011;54525;55.680;37.540;2022-08-19T03:46:19;7.63;;;4.20;;
67726;SDS011;54525;55.680;37.540;2022-08-19T03:48:48;5.90;;;3.88;;
67726;SDS011;54525;55.680;37.540;2022-08-19T03:51:26;9.65;;;3.85;;
67726;SDS011;54525;55.680;37.540;2022-08-19T03:53:55;9.18;;;4.32;;
67726;SDS011;54525;55.680;37.540;2022-08-19T03:56:23;9.57;;;4.53;;
67726;SDS011;54525;55.680;37.540;2022-08-19T03:58:56;16.15;;;5.05;;
67726;SDS011;54525;55.680;37.540;2022-08-19T04:01:24;10.25;;;4.60;;
67726;SDS011;54525;55.680;37.540;2022-08-19T04:03:53;14.98;;;4.75;;
67726;SDS011;54525;55.680;37.540;2022-08-19T04:06:22;8.75;;;5.25;;
67726;SDS011;54525;55.680;37.540;2022-08-19T04:08:51;8.50;;;4.93;;
67726;SDS011;54525;55.680;37.540;2022-08-19T04:11:20;11.80;;;3.80;;
67726;SDS011;54525;55.680;37.540;2022-08-19T04:13:47;12.15;;;4.30;;
67726;SDS011;54525;55.680;37.540;2022-08-19T04:16:14;11.15;;;4.63;;
67726;SDS011;54525;55.680;37.540;2022-08-19T04:18:40;10.95;;;4.07;;
67726;SDS011;54525;55.680;37.540;2022-08-19T04:21:06;14.98;;;4.60;;
67726;SDS011;54525;55.680;37.540;2022-08-19T04:23:33;12.90;;;4.15;;
67726;SDS011;54525;55.680;37.540;2022-08-19T04:26:01;14.15;;;5.70;;
67726;SDS011;54525;55.680;37.540;2022-08-19T04:28:27;10.45;;;4.60;;
67726;SDS011;54525;55.680;37.540;2022-08-19T04:30:54;8.98;;;4.35;;
67726;SDS011;54525;55.680;37.540;2022-08-19T04:33:23;17.38;;;4.68;;
67726;SDS011;54525;55.680;37.540;2022-08-19T04:35:50;6.75;;;4.22;;
67726;SDS011;54525;55.680;37.540;2022-08-19T04:38:18;6.22;;;3.47;;
67726;SDS011;54525;55.680;37.540;2022-08-19T04:40:46;11.38;;;4.15;;
67726;SDS011;54525;55.680;37.540;2022-08-19T04:43:32;8.25;;;3.78;;
67726;SDS011;54525;55.680;37.540;2022-08-19T04:46:03;9.20;;;5.30;;
67726;SDS011;54525;55.680;37.540;2022-08-19T04:48:34;16.20;;;4.68;;
67726;SDS011;54525;55.680;37.540;2022-08-19T04:51:00;8.82;;;4.63;;
67726;SDS011;54525;55.680;37.540;2022-08-19T04:53:27;12.27;;;5.00;;
67726;SDS011;54525;55.680;37.540;2022-08-19T04:55:56;8.52;;;5.15;;
67726;SDS011;54525;55.680;37.540;2022-08-19T04:58:23;13.18;;;5.28;;
67726;SDS011;54525;55.680;37.540;2022-08-19T05:00:50;9.55;;;4.40;;
67726;SDS011;54525;55.680;37.540;2022-08-19T05:03:16;10.30;;;4.88;;
67726;SDS011;54525;55.680;37.540;2022-08-19T05:05:42;7.30;;;5.10;;
67726;SDS011;54525;55.680;37.540;2022-08-19T05:08:09;11.57;;;4.68;;
67726;SDS011;54525;55.680;37.540;2022-08-19T05:10:36;11.45;;;5.30;;
67726;SDS011;54525;55.680;37.540;2022-08-19T05:13:03;12.98;;;4.72;;
67726;SDS011;54525;55.680;37.540;2022-08-19T05:15:29;11.88;;;5.18;;
67726;SDS011;54525;55.680;37.540;2022-08-19T05:17:55;11.02;;;5.30;;
67726;SDS011;54525;55.680;37.540;2022-08-19T05:20:39;13.73;;;4.50;;
67726;SDS011;54525;55.680;37.540;2022-08-19T05:23:23;11.68;;;4.57;;
67726;SDS011;54525;55.680;37.540;2022-08-19T05:25:49;14.15;;;4.28;;
67726;SDS011;54525;55.680;37.540;2022-08-19T05:28:16;9.43;;;4.50;;
67726;SDS011;54525;55.680;37.540;2022-08-19T05:30:43;12.68;;;4.53;;
67726;SDS011;54525;55.680;37.540;2022-08-19T05:33:09;7.30;;;4.45;;
67726;SDS011;54525;55.680;37.540;2022-08-19T05:35:37;12.65;;;4.47;;
67726;SDS011;54525;55.680;37.540;2022-08-19T05:38:04;15.38;;;5.13;;
67726;SDS011;54525;55.680;37.540;2022-08-19T05:40:34;18.13;;;5.40;;
67726;SDS011;54525;55.680;37.540;2022-08-19T05:43:04;11.52;;;4.68;;
67726;SDS011;54525;55.680;37.540;2022-08-19T05:45:30;12.45;;;5.13;;
67726;SDS011;54525;55.680;37.540;2022-08-19T05:47:56;9.07;;;4.88;;
67726;SDS011;54525;55.680;37.540;2022-08-19T05:50:23;17.50;;;5.30;;
67726;SDS011;54525;55.680;37.540;2022-08-19T05:52:50;9.85;;;4.70;;
67726;SDS011;54525;55.680;37.540;2022-08-19T05:55:16;7.60;;;4.20;;
67726;SDS011;54525;55.680;37.540;2022-08-19T05:57:41;21.42;;;5.47;;
67726;SDS011;54525;55.680;37.540;2022-08-19T06:00:07;12.25;;;4.88;;
67726;SDS011;54525;55.680;37.540;2022-08-19T06:02:35;16.85;;;4.93;;
67726;SDS011;54525;55.680;37.540;2022-08-19T06:05:02;9.80;;;4.18;;
67726;SDS011;54525;55.680;37.540;2022-08-19T06:07:31;11.45;;;4.35;;
67726;SDS011;54525;55.680;37.540;2022-08-19T06:09:56;13.88;;;5.20;;
67726;SDS011;54525;55.680;37.540;2022-08-19T06:12:21;11.77;;;4.40;;
67726;SDS011;54525;55.680;37.540;2022-08-19T06:14:53;11.65;;;5.32;;
67726;SDS011;54525;55.680;37.540;2022-08-19T06:17:19;16.77;;;4.88;;
67726;SDS011;54525;55.680;37.540;2022-08-19T06:19:49;11.60;;;5.22;;
67726;SDS011;54525;55.680;37.540;2022-08-19T06:22:15;11.80;;;4.53;;
67726;SDS011;54525;55.680;37.540;2022-08-19T06:24:41;12.40;;;4.22;;
67726;SDS011;54525;55.680;37.540;2022-08-19T06:27:06;12.02;;;4.80;;
67726;SDS011;54525;55.680;37.540;2022-08-19T06:29:32;17.98;;;4.80;;
67726;SDS011;54525;55.680;37.540;2022-08-19T06:31:59;12.18;;;4.47;;
67726;SDS011;54525;55.680;37.540;2022-08-19T06:34:26;10.73;;;5.10;;
67726;SDS011;54525;55.680;37.540;2022-08-19T06:36:53;12.60;;;4.78;;
67726;SDS011;54525;55.680;37.540;2022-08-19T06:39:24;11.57;;;5.22;;
67726;SDS011;54525;55.680;37.540;2022-08-19T06:41:53;13.35;;;4.07;;
67726;SDS011;54525;55.680;37.540;2022-08-19T06:44:22;12.95;;;4.28;;
67726;SDS011;54525;55.680;37.540;2022-08-19T06:46:48;13.13;;;4.93;;
67726;SDS011;54525;55.680;37.540;2022-08-19T06:49:14;8.15;;;4.80;;
67726;SDS011;54525;55.680;37.540;2022-08-19T06:51:42;14.27;;;4.38;;
67726;SDS011;54525;55.680;37.540;2022-08-19T06:54:09;12.80;;;5.03;;
67726;SDS011;54525;55.680;37.540;2022-08-19T06:56:35;17.45;;;5.13;;
67726;SDS011;54525;55.680;37.540;2022-08-19T06:59:03;12.70;;;5.03;;
67726;SDS011;54525;55.680;37.540;2022-08-19T07:01:34;7.00;;;4.72;;
67726;SDS011;54525;55.680;37.540;2022-08-19T07:04:08;18.08;;;4.65;;
67726;SDS011;54525;55.680;37.540;2022-08-19T07:06:35;10.05;;;4.18;;
67726;SDS011;54525;55.680;37.540;2022-08-19T07:09:01;15.63;;;4.35;;
67726;SDS011;54525;55.680;37.540;2022-08-19T07:11:28;11.52;;;4.93;;
67726;SDS011;54525;55.680;37.540;2022-08-19T07:13:53;13.48;;;4.68;;
67726;SDS011;54525;55.680;37.540;2022-08-19T07:16:20;14.95;;;4.50;;
67726;SDS011;54525;55.680;37.540;2022-08-19T07:18:47;13.45;;;4.28;;
67726;SDS011;54525;55.680;37.540;2022-08-19T07:21:16;10.95;;;4.80;;
67726;SDS011;54525;55.680;37.540;2022-08-19T07:23:45;10.95;;;4.32;;
67726;SDS011;54525;55.680;37.540;2022-08-19T07:26:15;18.08;;;4.30;;
67726;SDS011;54525;55.680;37.540;2022-08-19T07:28:49;10.63;;;4.68;;
67726;SDS011;54525;55.680;37.540;2022-08-19T07:31:19;14.27;;;6.18;;
67726;SDS011;54525;55.680;37.540;2022-08-19T07:33:47;13.77;;;4.43;;
67726;SDS011;54525;55.680;37.540;2022-08-19T07:36:14;6.32;;;3.50;;
67726;SDS011;54525;55.680;37.540;2022-08-19T07:38:43;12.25;;;4.47;;
67726;SDS011;54525;55.680;37.540;2022-08-19T07:41:11;11.27;;;4.25;;
67726;SDS011;54525;55.680;37.540;2022-08-19T07:43:38;11.48;;;3.92;;
67726;SDS011;54525;55.680;37.540;2022-08-19T07:46:05;13.05;;;4.72;;
67726;SDS011;54525;55.680;37.540;2022-08-19T07:48:31;10.98;;;3.85;;
67726;SDS011;54525;55.680;37.540;2022-08-19T07:50:59;12.32;;;4.07;;
67726;SDS011;54525;55.680;37.540;2022-08-19T07:53:28;9.10;;;3.75;;
67726;SDS011;54525;55.680;37.540;2022-08-19T07:55:54;8.30;;;4.35;;
67726;SDS011;54525;55.680;37.540;2022-08-19T07:58:21;10.25;;;4.00;;
67726;SDS011;54525;55.680;37.540;2022-08-19T08:00:48;9.57;;;3.65;;
67726;SDS011;54525;55.680;37.540;2022-08-19T08:03:15;8.23;;;3.17;;
67726;SDS011;54525;55.680;37.540;2022-08-19T08:05:42;16.95;;;4.40;;
67726;SDS011;54525;55.680;37.540;2022-08-19T08:08:27;10.57;;;4.28;;
67726;SDS011;54525;55.680;37.540;2022-08-19T08:11:12;12.32;;;3.85;;
67726;SDS011;54525;55.680;37.540;2022-08-19T08:13:39;10.75;;;3.55;;
67726;SDS011;54525;55.680;37.540;2022-08-19T08:16:06;17.00;;;3.90;;
67726;SDS011;54525;55.680;37.540;2022-08-19T08:18:32;14.20;;;3.70;;
67726;SDS011;54525;55.680;37.540;2022-08-19T08:20:59;10.40;;;3.50;;
67726;SDS011;54525;55.680;37.540;2022-08-19T08:23:25;11.57;;;3.53;;
67726;SDS011;54525;55.680;37.540;2022-08-19T08:25:52;9.18;;;3.97;;
67726;SDS011;54525;55.680;37.540;2022-08-19T08:28:19;12.60;;;4.32;;
67726;SDS011;54525;55.680;37.540;2022-08-19T08:30:47;11.10;;;3.55;;
67726;SDS011;54525;55.680;37.540;2022-08-19T08:33:16;6.65;;;4.22;;
67726;SDS011;54525;55.680;37.540;2022-08-19T08:35:43;14.52;;;4.22;;
67726;SDS011;54525;55.680;37.540;2022-08-19T08:38:10;12.95;;;3.85;;
67726;SDS011;54525;55.680;37.540;2022-08-19T08:43:30;9.65;;;3.47;;
67726;SDS011;54525;55.680;37.540;2022-08-19T08:46:01;11.87;;;3.90;;
67726;SDS011;54525;55.680;37.540;2022-08-19T08:48:32;12.68;;;3.55;;
67726;SDS011;54525;55.680;37.540;2022-08-19T08:51:03;6.95;;;3.30;;
67726;SDS011;54525;55.680;37.540;2022-08-19T08:53:32;12.45;;;3.88;;
67726;SDS011;54525;55.680;37.540;2022-08-19T08:56:00;10.63;;;3.60;;
67726;SDS011;54525;55.680;37.540;2022-08-19T08:58:31;8.75;;;3.50;;
67726;SDS011;54525;55.680;37.540;2022-08-19T09:01:08;9.55;;;2.95;;
67726;SDS011;54525;55.680;37.540;2022-08-19T09:03:36;11.35;;;2.90;;
67726;SDS011;54525;55.680;37.540;2022-08-19T09:06:06;4.43;;;3.10;;
67726;SDS011;54525;55.680;37.540;2022-08-19T09:08:43;11.70;;;2.92;;
67726;SDS011;54525;55.680;37.540;2022-08-19T09:14:08;10.52;;;2.65;;
67726;SDS011;54525;55.680;37.540;2022-08-19T09:16:53;5.88;;;2.67;;
67726;SDS011;54525;55.680;37.540;2022-08-19T09:19:18;6.72;;;2.40;;
67726;SDS011;54525;55.680;37.540;2022-08-19T09:21:44;11.00;;;2.83;;
67726;SDS011;54525;55.680;37.540;2022-08-19T09:24:10;9.40;;;2.85;;
67726;SDS011;54525;55.680;37.540;2022-08-19T09:26:37;8.25;;;3.80;;
67726;SDS011;54525;55.680;37.540;2022-08-19T09:29:02;9.43;;;2.90;;
67726;SDS011;54525;55.680;37.540;2022-08-19T09:31:30;7.90;;;2.97;;
67726;SDS011;54525;55.680;37.540;2022-08-19T09:33:57;12.95;;;3.08;;
67726;SDS011;54525;55.680;37.540;2022-08-19T09:36:25;11.00;;;3.45;;
67726;SDS011;54525;55.680;37.540;2022-08-19T09:38:54;9.45;;;3.30;;
67726;SDS011;54525;55.680;37.540;2022-08-19T09:41:22;6.63;;;2.85;;
67726;SDS011;54525;55.680;37.540;2022-08-19T09:43:50;8.00;;;3.20;;
67726;SDS011;54525;55.680;37.540;2022-08-19T09:46:20;7.82;;;3.20;;
67726;SDS011;54525;55.680;37.540;2022-08-19T09:48:47;14.80;;;4.13;;
67726;SDS011;54525;55.680;37.540;2022-08-19T09:51:16;6.65;;;3.45;;
67726;SDS011;54525;55.680;37.540;2022-08-19T09:53:45;8.35;;;3.05;;
67726;SDS011;54525;55.680;37.540;2022-08-19T09:56:14;11.82;;;3.80;;
67726;SDS011;54525;55.680;37.540;2022-08-19T09:58:40;9.45;;;3.10;;
67726;SDS011;54525;55.680;37.540;2022-08-19T10:01:06;10.85;;;3.50;;
67726;SDS011;54525;55.680;37.540;2022-08-19T10:03:33;13.90;;;3.53;;
67726;SDS011;54525;55.680;37.540;2022-08-19T10:06:01;15.23;;;3.17;;
67726;SDS011;54525;55.680;37.540;2022-08-19T10:08:30;13.75;;;3.00;;
67726;SDS011;54525;55.680;37.540;2022-08-19T10:10:57;8.80;;;2.83;;
67726;SDS011;54525;55.680;37.540;2022-08-19T10:13:24;13.80;;;2.70;;
67726;SDS011;54525;55.680;37.540;2022-08-19T10:15:53;8.43;;;2.42;;
67726;SDS011;54525;55.680;37.540;2022-08-19T10:18:21;5.38;;;2.83;;
67726;SDS011;54525;55.680;37.540;2022-08-19T10:20:49;7.28;;;2.55;;
67726;SDS011;54525;55.680;37.540;2022-08-19T10:23:17;11.00;;;4.00;;
67726;SDS011;54525;55.680;37.540;2022-08-19T10:25:44;11.00;;;2.60;;
67726;SDS011;54525;55.680;37.540;2022-08-19T10:28:10;9.38;;;2.65;;
67726;SDS011;54525;55.680;37.540;2022-08-19T10:30:37;12.93;;;3.50;;
67726;SDS011;54525;55.680;37.540;2022-08-19T10:33:04;15.05;;;2.80;;
67726;SDS011;54525;55.680;37.540;2022-08-19T10:35:30;6.55;;;3.15;;
67726;SDS011;54525;55.680;37.540;2022-08-19T10:37:56;11.85;;;2.90;;
67726;SDS011;54525;55.680;37.540;2022-08-19T10:40:26;11.40;;;2.90;;
67726;SDS011;54525;55.680;37.540;2022-08-19T10:42:53;16.30;;;3.40;;
67726;SDS011;54525;55.680;37.540;2022-08-19T10:45:20;8.73;;;2.10;;
67726;SDS011;54525;55.680;37.540;2022-08-19T10:47:50;7.00;;;2.33;;
67726;SDS011;54525;55.680;37.540;2022-08-19T10:50:16;10.10;;;3.08;;
67726;SDS011;54525;55.680;37.540;2022-08-19T10:53:03;9.95;;;2.60;;
67726;SDS011;54525;55.680;37.540;2022-08-19T10:55:36;10.25;;;2.35;;
67726;SDS011;54525;55.680;37.540;2022-08-19T10:58:20;9.60;;;3.03;;
67726;SDS011;54525;55.680;37.540;2022-08-19T11:00:52;18.10;;;3.20;;
67726;SDS011;54525;55.680;37.540;2022-08-19T11:03:19;7.75;;;2.42;;
67726;SDS011;54525;55.680;37.540;2022-08-19T11:05:45;7.82;;;2.47;;
67726;SDS011;54525;55.680;37.540;2022-08-19T11:08:10;10.15;;;2.47;;
67726;SDS011;54525;55.680;37.540;2022-08-19T11:10:37;11.55;;;2.60;;
67726;SDS011;54525;55.680;37.540;2022-08-19T11:13:06;12.27;;;2.67;;
67726;SDS011;54525;55.680;37.540;2022-08-19T11:15:31;10.77;;;3.20;;
67726;SDS011;54525;55.680;37.540;2022-08-19T11:17:58;19.35;;;3.35;;
67726;SDS011;54525;55.680;37.540;2022-08-19T11:20:23;7.47;;;2.70;;
67726;SDS011;54525;55.680;37.540;2022-08-19T11:22:51;14.27;;;2.70;;
67726;SDS011;54525;55.680;37.540;2022-08-19T11:25:18;8.45;;;2.72;;
67726;SDS011;54525;55.680;37.540;2022-08-19T11:27:44;4.60;;;2.47;;
67726;SDS011;54525;55.680;37.540;2022-08-19T11:30:11;5.93;;;2.38;;
67726;SDS011;54525;55.680;37.540;2022-08-19T11:32:38;6.65;;;2.40;;
67726;SDS011;54525;55.680;37.540;2022-08-19T11:35:04;15.98;;;2.38;;
67726;SDS011;54525;55.680;37.540;2022-08-19T11:37:29;21.13;;;3.03;;
67726;SDS011;54525;55.680;37.540;2022-08-19T11:39:55;6.22;;;2.25;;
67726;SDS011;54525;55.680;37.540;2022-08-19T11:42:20;9.90;;;2.60;;
67726;SDS011;54525;55.680;37.540;2022-08-19T11:45:04;8.43;;;2.40;;
67726;SDS011;54525;55.680;37.540;2022-08-19T11:47:30;11.05;;;2.75;;
67726;SDS011;54525;55.680;37.540;2022-08-19T11:49:56;9.93;;;2.10;;
67726;SDS011;54525;55.680;37.540;2022-08-19T11:52:22;7.75;;;2.33;;
67726;SDS011;54525;55.680;37.540;2022-08-19T11:54:47;10.80;;;3.13;;
67726;SDS011;54525;55.680;37.540;2022-08-19T11:57:13;6.78;;;2.72;;
67726;SDS011;54525;55.680;37.540;2022-08-19T11:59:41;6.43;;;2.80;;
67726;SDS011;54525;55.680;37.540;2022-08-19T12:02:07;8.60;;;2.75;;
67726;SDS011;54525;55.680;37.540;2022-08-19T12:04:33;18.85;;;3.20;;
67726;SDS011;54525;55.680;37.540;2022-08-19T12:06:59;7.30;;;2.55;;
67726;SDS011;54525;55.680;37.540;2022-08-19T12:09:25;10.73;;;2.60;;
67726;SDS011;54525;55.680;37.540;2022-08-19T12:11:50;20.42;;;2.97;;
67726;SDS011;54525;55.680;37.540;2022-08-19T12:14:16;6.25;;;2.90;;
67726;SDS011;54525;55.680;37.540;2022-08-19T12:16:43;11.93;;;2.88;;
67726;SDS011;54525;55.680;37.540;2022-08-19T12:19:11;8.73;;;3.05;;
67726;SDS011;54525;55.680;37.540;2022-08-19T12:21:36;11.18;;;3.05;;
67726;SDS011;54525;55.680;37.540;2022-08-19T12:24:03;11.40;;;2.60;;
67726;SDS011;54525;55.680;37.540;2022-08-19T12:26:30;9.23;;;2.85;;
67726;SDS011;54525;55.680;37.540;2022-08-19T12:28:56;14.63;;;3.00;;
67726;SDS011;54525;55.680;37.540;2022-08-19T12:31:24;13.13;;;2.97;;
67726;SDS011;54525;55.680;37.540;2022-08-19T12:33:50;9.07;;;2.95;;
67726;SDS011;54525;55.680;37.540;2022-08-19T12:36:17;11.82;;;2.97;;
67726;SDS011;54525;55.680;37.540;2022-08-19T12:38:42;13.32;;;2.90;;
67726;SDS011;54525;55.680;37.540;2022-08-19T12:41:10;6.70;;;3.00;;
67726;SDS011;54525;55.680;37.540;2022-08-19T12:43:38;10.27;;;4.10;;
67726;SDS011;54525;55.680;37.540;2022-08-19T12:46:05;9.55;;;2.80;;
67726;SDS011;54525;55.680;37.540;2022-08-19T12:48:31;9.02;;;3.15;;
67726;SDS011;54525;55.680;37.540;2022-08-19T12:50:57;6.93;;;2.92;;
67726;SDS011;54525;55.680;37.540;2022-08-19T12:53:23;5.07;;;2.70;;
67726;SDS011;54525;55.680;37.540;2022-08-19T12:55:56;11.63;;;3.72;;
67726;SDS011;54525;55.680;37.540;2022-08-19T12:58:22;14.70;;;3.22;;
67726;SDS011;54525;55.680;37.540;2022-08-19T13:00:48;8.27;;;2.25;;
67726;SDS011;54525;55.680;37.540;2022-08-19T13:03:14;11.23;;;3.20;;
67726;SDS011;54525;55.680;37.540;2022-08-19T13:05:40;13.18;;;3.58;;
67726;SDS011;54525;55.680;37.540;2022-08-19T13:08:06;12.88;;;3.28;;
67726;SDS011;54525;55.680;37.540;2022-08-19T13:10:32;3.60;;;2.90;;
67726;SDS011;54525;55.680;37.540;2022-08-19T13:13:00;9.73;;;2.88;;
67726;SDS011;54525;55.680;37.540;2022-08-19T13:15:26;6.25;;;2.90;;
67726;SDS011;54525;55.680;37.540;2022-08-19T13:17:56;11.38;;;2.78;;
67726;SDS011;54525;55.680;37.540;2022-08-19T13:20:23;9.50;;;3.33;;
67726;SDS011;54525;55.680;37.540;2022-08-19T13:22:49;7.85;;;2.72;;
67726;SDS011;54525;55.680;37.540;2022-08-19T13:25:15;4.82;;;3.13;;
67726;SDS011;54525;55.680;37.540;2022-08-19T13:27:44;13.57;;;3.80;;
67726;SDS011;54525;55.680;37.540;2022-08-19T13:30:11;15.05;;;4.53;;
67726;SDS011;54525;55.680;37.540;2022-08-19T13:32:56;11.60;;;4.10;;
67726;SDS011;54525;55.680;37.540;2022-08-19T13:35:41;10.32;;;4.60;;
67726;SDS011;54525;55.680;37.540;2022-08-19T13:38:08;7.47;;;3.90;;
67726;SDS011;54525;55.680;37.540;2022-08-19T13:40:35;15.93;;;4.85;;
67726;SDS011;54525;55.680;37.540;2022-08-19T13:43:02;7.80;;;4.22;;
67726;SDS011;54525;55.680;37.540;2022-08-19T13:45:29;10.52;;;4.60;;
67726;SDS011;54525;55.680;37.540;2022-08-19T13:47:58;11.30;;;5.60;;
67726;SDS011;54525;55.680;37.540;2022-08-19T13:50:25;11.70;;;5.30;;
67726;SDS011;54525;55.680;37.540;2022-08-19T13:52:53;11.52;;;4.85;;
67726;SDS011;54525;55.680;37.540;2022-08-19T13:55:20;12.40;;;6.78;;
67726;SDS011;54525;55.680;37.540;2022-08-19T13:57:49;14.38;;;5.65;;
67726;SDS011;54525;55.680;37.540;2022-08-19T14:00:17;12.75;;;7.40;;
67726;SDS011;54525;55.680;37.540;2022-08-19T14:02:44;15.73;;;7.07;;
67726;SDS011;54525;55.680;37.540;2022-08-19T14:05:12;11.02;;;6.63;;
67726;SDS011;54525;55.680;37.540;2022-08-19T14:07:39;14.05;;;9.32;;
67726;SDS011;54525;55.680;37.540;2022-08-19T14:10:06;16.23;;;11.05;;
67726;SDS011;54525;55.680;37.540;2022-08-19T14:12:34;19.27;;;10.73;;
67726;SDS011;54525;55.680;37.540;2022-08-19T14:15:00;13.85;;;10.70;;
67726;SDS011;54525;55.680;37.540;2022-08-19T14:17:27;14.95;;;10.98;;
67726;SDS011;54525;55.680;37.540;2022-08-19T14:19:57;18.25;;;10.52;;
67726;SDS011;54525;55.680;37.540;2022-08-19T14:22:25;16.45;;;10.18;;
67726;SDS011;54525;55.680;37.540;2022-08-19T14:24:52;22.08;;;9.90;;
67726;SDS011;54525;55.680;37.540;2022-08-19T14:27:17;17.42;;;9.55;;
67726;SDS011;54525;55.680;37.540;2022-08-19T14:29:43;15.18;;;10.10;;
67726;SDS011;54525;55.680;37.540;2022-08-19T14:32:09;17.60;;;10.43;;
67726;SDS011;54525;55.680;37.540;2022-08-19T14:34:35;20.88;;;8.98;;
67726;SDS011;54525;55.680;37.540;2022-08-19T14:37:02;13.55;;;9.00;;